Sattley, California
Current Conditions -  °F | °C
As of 9:52 AM on Saturday 25 Oct 2014 (Local Time) from KBLU Reporting Station
Moderate Rain Moderate Rain  
Wind Chill: 36°   Ceiling: 200
Heat Index: 44°   Visibility: 0.25mi
Dew Point: 41°   Wind: 21mph
Humidity: 89%   Direction: 160°SSE
Pressure: 30.07"   Gusts: 28mph
Location:  39.6428°N, 120.493°W
Report Text: KBLU 251652Z AUTO 16018G24KT 1/4SM RA FG VV002 07/05 A3007 RMK AO2 PK WND 15027/1638 SLP140 P0010 T00670050
Loading
Personal Weather Stations






























Interactive Weather Map
Tropical Storm Tracking
New forecast layout! Learn more

10-Day Weather Forecast

Advertisements
Track Severe Weather on mobile